Time;durP1;ratioP1;P1;durP2;ratioP2;P2;SDS_P1;SDS_P2;PMS_P1;PMS_P2;Temp;Humidity;BMP_temperature;BMP_pressure;BME280_temperature;BME280_humidity;BME280_pressure;Samples;Min_cycle;Max_cycle;Signal;HPM_P1;HPM_P2
2022/05/22 00:00:29;;;;;;;2.43;2.23;;;18.00;27.20;;;;;;10439583;28;20221;-73
2022/05/22 00:05:32;;;;;;;2.93;2.33;;;18.00;27.00;;;;;;10434051;28;20229;-73
2022/05/22 00:10:38;;;;;;;2.50;2.30;;;18.00;27.00;;;;;;10434673;28;20221;-73
2022/05/22 00:16:36;;;;;;;2.37;2.27;;;18.00;27.50;;;;;;10436958;28;20235;-73
2022/05/22 00:21:05;;;;;;;3.50;2.57;;;18.00;27.20;;;;;;10433138;28;20759;-73
2022/05/22 00:26:09;;;;;;;2.87;2.40;;;18.00;27.20;;;;;;10435376;28;20228;-73
2022/05/22 00:31:13;;;;;;;2.23;2.07;;;17.90;27.40;;;;;;10429743;28;20244;-73
2022/05/22 00:36:16;;;;;;;2.40;2.20;;;17.90;27.10;;;;;;10431189;28;20247;-73
2022/05/22 00:41:21;;;;;;;2.43;2.23;;;17.90;27.20;;;;;;10432094;28;20261;-73
2022/05/22 00:46:25;;;;;;;2.57;2.20;;;17.90;27.50;;;;;;10435260;28;20229;-74
2022/05/22 00:51:34;;;;;;;2.20;2.00;;;17.80;27.30;;;;;;10427715;28;20225;-73
2022/05/22 00:56:43;;;;;;;2.60;2.40;;;17.70;27.40;;;;;;10433744;28;20220;-73
2022/05/22 01:01:48;;;;;;;2.40;2.20;;;17.60;27.90;;;;;;10432872;28;20224;-73
2022/05/22 01:06:52;;;;;;;2.03;1.93;;;17.50;27.50;;;;;;10430458;28;20224;-73
2022/05/22 01:12:02;;;;;;;2.33;2.13;;;17.40;27.60;;;;;;10429560;28;20232;-73
2022/05/22 01:17:07;;;;;;;3.73;2.30;;;17.30;28.50;;;;;;10429036;28;20221;-73
2022/05/22 01:22:13;;;;;;;3.17;2.20;;;17.20;27.90;;;;;;10430349;28;20577;-73
2022/05/22 01:27:18;;;;;;;2.60;2.40;;;17.20;28.20;;;;;;10431888;28;20716;-73
2022/05/22 01:32:22;;;;;;;2.70;2.50;;;17.10;27.90;;;;;;10430533;28;20752;-73
2022/05/22 01:37:26;;;;;;;2.73;2.53;;;17.00;27.80;;;;;;10434054;28;20233;-72
2022/05/22 01:42:30;;;;;;;2.43;2.33;;;16.80;28.20;;;;;;10427555;28;20224;-73
2022/05/22 01:47:34;;;;;;;2.60;2.40;;;16.80;28.10;;;;;;10431427;28;20236;-73
2022/05/22 01:52:40;;;;;;;2.77;2.57;;;16.70;28.20;;;;;;10430986;28;20602;-73
2022/05/22 01:57:43;;;;;;;2.47;2.30;;;16.60;28.60;;;;;;10430330;28;20228;-73
2022/05/22 02:02:47;;;;;;;2.60;2.40;;;16.60;28.30;;;;;;10430178;28;20240;-73
2022/05/22 02:13:16;;;;;;;2.60;2.40;;;16.50;28.60;;;;;;10431608;28;20248;-73
2022/05/22 02:18:20;;;;;;;2.77;2.57;;;16.40;28.30;;;;;;10430229;28;20236;-73
2022/05/22 02:23:24;;;;;;;2.70;2.50;;;16.40;28.60;;;;;;10428395;28;20221;-72
2022/05/22 02:28:28;;;;;;;2.27;2.17;;;16.30;28.90;;;;;;10427280;28;20315;-73
2022/05/22 02:33:32;;;;;;;2.10;2.00;;;16.20;28.70;;;;;;10431804;28;20229;-73
2022/05/22 02:38:37;;;;;;;2.50;2.30;;;16.20;28.70;;;;;;10430229;28;20245;-72
2022/05/22 02:43:40;;;;;;;2.03;1.90;;;16.20;29.10;;;;;;10434475;28;20232;-73
2022/05/22 02:48:43;;;;;;;2.87;2.67;;;16.20;28.80;;;;;;10431673;28;20232;-73
2022/05/22 02:53:48;;;;;;;2.47;2.27;;;16.20;28.80;;;;;;10433448;28;20225;-73
2022/05/22 02:58:52;;;;;;;1.90;1.80;;;16.20;29.00;;;;;;10438909;28;20253;-73
2022/05/22 03:03:55;;;;;;;2.73;2.53;;;16.10;28.80;;;;;;10438807;28;20220;-72
2022/05/22 03:09:00;;;;;;;3.00;1.90;;;16.00;28.80;;;;;;10440422;28;20739;-72
2022/05/22 03:14:03;;;;;;;2.13;1.90;;;16.00;29.00;;;;;;10437845;28;20242;-71
2022/05/22 03:19:06;;;;;;;3.17;2.50;;;15.90;28.90;;;;;;10438049;28;20225;-70
2022/05/22 03:24:11;;;;;;;2.73;2.53;;;16.00;29.10;;;;;;10432079;28;20213;-70
2022/05/22 03:29:14;;;;;;;2.40;2.30;;;15.90;29.30;;;;;;10436709;28;20233;-71
2022/05/22 03:34:17;;;;;;;2.40;2.20;;;15.90;29.00;;;;;;10438827;28;20705;-71
2022/05/22 03:39:22;;;;;;;2.33;2.23;;;15.80;29.00;;;;;;10434775;28;20669;-71
2022/05/22 03:44:25;;;;;;;2.50;2.27;;;15.80;29.20;;;;;;10435696;28;20229;-71
2022/05/22 03:49:29;;;;;;;2.40;2.30;;;15.70;29.00;;;;;;10439225;28;20236;-71
2022/05/22 03:54:33;;;;;;;3.00;2.70;;;15.70;29.10;;;;;;10434698;28;20239;-71
2022/05/22 03:59:39;;;;;;;3.20;2.90;;;15.70;29.30;;;;;;10438880;28;20221;-71
2022/05/22 04:04:42;;;;;;;4.97;2.73;;;15.70;29.50;;;;;;10431906;28;20276;-71
2022/05/22 04:09:47;;;;;;;3.23;3.03;;;15.60;29.30;;;;;;10437082;28;20811;-71
2022/05/22 04:14:53;;;;;;;3.13;2.93;;;15.50;29.60;;;;;;10437101;28;20240;-71
2022/05/22 04:19:56;;;;;;;3.20;2.90;;;15.40;30.00;;;;;;10435093;28;20240;-71
2022/05/22 04:25:13;;;;;;;3.03;2.83;;;15.30;29.60;;;;;;10430988;28;20257;-71
2022/05/22 04:30:18;;;;;;;3.60;2.70;;;15.20;30.20;;;;;;10434553;28;20216;-71
2022/05/22 04:35:22;;;;;;;3.00;2.70;;;15.20;30.00;;;;;;10432362;28;21695;-70
2022/05/22 04:40:27;;;;;;;3.53;3.23;;;15.20;30.20;;;;;;10432955;28;20689;-70
2022/05/22 04:45:30;;;;;;;3.57;3.30;;;15.30;30.90;;;;;;10432970;28;20221;-71
2022/05/22 04:50:34;;;;;;;3.10;2.80;;;15.30;30.60;;;;;;10437458;28;20225;-71
2022/05/22 04:55:39;;;;;;;3.40;3.10;;;15.20;30.40;;;;;;10434818;28;20781;-71
2022/05/22 05:00:42;;;;;;;3.60;3.30;;;15.20;31.60;;;;;;10434045;28;21109;-71
2022/05/22 05:05:55;;;;;;;3.73;3.40;;;15.30;31.10;;;;;;10434234;28;20233;-71
2022/05/22 05:11:01;;;;;;;3.83;3.23;;;15.30;32.40;;;;;;10432648;28;20217;-71
2022/05/22 05:16:06;;;;;;;4.00;3.70;;;15.40;32.50;;;;;;10435143;28;20225;-71
2022/05/22 05:21:12;;;;;;;3.87;3.57;;;15.50;32.20;;;;;;10433976;28;20216;-71
2022/05/22 05:26:17;;;;;;;3.90;3.37;;;15.60;32.60;;;;;;10430119;28;20221;-71
2022/05/22 05:31:20;;;;;;;3.53;3.23;;;15.70;32.70;;;;;;10435171;28;20229;-72
2022/05/22 05:36:23;;;;;;;3.53;3.33;;;15.90;32.10;;;;;;10429129;28;20232;-72
2022/05/22 05:41:28;;;;;;;3.50;3.20;;;16.00;32.60;;;;;;10433016;28;20607;-71
2022/05/22 05:46:31;;;;;;;3.80;3.47;;;16.10;32.90;;;;;;10433681;28;20224;-72
2022/05/22 05:51:36;;;;;;;3.80;3.50;;;16.20;32.30;;;;;;10429123;28;20544;-71
2022/05/22 05:56:42;;;;;;;3.70;3.40;;;16.40;32.50;;;;;;10431777;28;20251;-72
2022/05/22 06:01:45;;;;;;;3.50;3.20;;;16.50;33.40;;;;;;10432482;28;20236;-72
2022/05/22 06:06:48;;;;;;;3.97;3.57;;;16.70;32.30;;;;;;10434284;28;20232;-72
2022/05/22 06:11:52;;;;;;;3.67;3.37;;;16.80;32.40;;;;;;10431588;28;20224;-71
2022/05/22 06:16:55;;;;;;;4.20;3.80;;;16.90;33.20;;;;;;10430340;28;20229;-71
2022/05/22 06:21:59;;;;;;;3.57;3.37;;;17.20;33.00;;;;;;10435195;28;20735;-72
2022/05/22 06:27:04;;;;;;;3.60;3.30;;;17.30;33.10;;;;;;10439322;28;21001;-71
2022/05/22 06:32:11;;;;;;;3.33;3.03;;;17.50;33.80;;;;;;10438432;28;20239;-71
2022/05/22 06:37:22;;;;;;;3.60;3.30;;;17.70;33.10;;;;;;10436710;28;20239;-71
2022/05/22 06:42:30;;;;;;;4.20;2.80;;;18.00;33.10;;;;;;10437937;28;20247;-72
2022/05/22 06:47:35;;;;;;;3.17;2.90;;;18.20;33.40;;;;;;10439822;28;20217;-72
2022/05/22 06:52:38;;;;;;;3.67;3.30;;;18.40;33.20;;;;;;10435400;28;20229;-72
2022/05/22 06:57:43;;;;;;;3.23;2.67;;;18.60;32.80;;;;;;10440339;28;20228;-72
2022/05/22 07:02:47;;;;;;;2.87;2.60;;;18.80;32.50;;;;;;10433833;28;20241;-72
2022/05/22 07:07:51;;;;;;;2.90;1.90;;;19.10;32.20;;;;;;10434392;28;20224;-72
2022/05/22 07:12:56;;;;;;;2.17;2.00;;;19.30;31.70;;;;;;10435274;28;20237;-71
2022/05/22 07:17:59;;;;;;;2.40;2.20;;;19.50;31.40;;;;;;10437036;28;20228;-72
2022/05/22 07:23:02;;;;;;;3.13;1.97;;;19.70;31.70;;;;;;10437711;28;20233;-71
2022/05/22 07:28:07;;;;;;;2.40;2.20;;;19.90;31.40;;;;;;10435241;28;20966;-71
2022/05/22 07:33:11;;;;;;;2.87;2.03;;;20.10;31.20;;;;;;10438133;28;20224;-73
2022/05/22 07:38:14;;;;;;;2.03;1.90;;;20.40;31.60;;;;;;10432107;28;20236;-72
2022/05/22 07:43:18;;;;;;;2.07;1.90;;;20.60;31.10;;;;;;10437500;28;20212;-72
2022/05/22 07:48:22;;;;;;;2.17;1.60;;;20.90;30.70;;;;;;10435713;28;20383;-72
2022/05/22 07:53:26;;;;;;;2.13;1.50;;;21.20;30.20;;;;;;10432503;28;20237;-72
2022/05/22 07:58:31;;;;;;;2.67;1.70;;;21.40;30.00;;;;;;10434427;28;20228;-73
2022/05/22 08:03:35;;;;;;;1.50;1.40;;;21.60;29.20;;;;;;10431006;28;20221;-76
2022/05/22 08:08:38;;;;;;;1.97;1.20;;;21.80;29.00;;;;;;10433186;28;20292;-72
2022/05/22 08:13:47;;;;;;;2.37;1.70;;;22.00;28.40;;;;;;10432543;28;20312;-72
2022/05/22 08:18:50;;;;;;;3.30;1.70;;;22.10;27.60;;;;;;10435137;28;20709;-71
2022/05/22 08:23:53;;;;;;;2.53;1.50;;;22.20;28.20;;;;;;10434991;28;20228;-71
2022/05/22 08:28:58;;;;;;;1.63;1.50;;;22.30;27.80;;;;;;10434797;28;20611;-73
2022/05/22 08:34:02;;;;;;;2.23;1.30;;;22.50;27.50;;;;;;10436186;28;20232;-73
2022/05/22 08:39:06;;;;;;;1.50;1.40;;;22.80;27.30;;;;;;10436222;28;20229;-72
2022/05/22 08:44:14;;;;;;;1.70;1.50;;;23.00;27.40;;;;;;10434537;28;20232;-71
2022/05/22 08:49:22;;;;;;;1.63;1.50;;;23.20;26.80;;;;;;10431598;28;20890;-72
2022/05/22 08:54:30;;;;;;;3.17;1.67;;;23.30;26.70;;;;;;10427591;28;20232;-72
2022/05/22 08:59:39;;;;;;;8.60;3.30;;;23.40;26.70;;;;;;10426185;28;20599;-72
2022/05/22 09:04:46;;;;;;;2.03;1.50;;;23.60;26.30;;;;;;10430556;28;20733;-72
2022/05/22 09:09:53;;;;;;;1.90;1.53;;;23.70;25.60;;;;;;10429840;28;20235;-72
2022/05/22 09:15:05;;;;;;;2.40;1.60;;;23.90;26.00;;;;;;10429734;28;20228;-72
2022/05/22 09:20:17;;;;;;;1.70;1.37;;;24.10;25.30;;;;;;10431264;28;20733;-72
2022/05/22 09:25:29;;;;;;;1.83;1.30;;;24.30;25.30;;;;;;10431240;28;20263;-72
2022/05/22 09:30:40;;;;;;;1.40;1.30;;;24.50;25.10;;;;;;10427727;28;20221;-72
2022/05/22 09:35:51;;;;;;;1.60;1.50;;;24.70;25.20;;;;;;10431537;28;20225;-72
2022/05/22 09:41:04;;;;;;;1.77;1.50;;;24.90;24.70;;;;;;10430232;28;20229;-72
2022/05/22 09:46:26;;;;;;;2.13;1.40;;;25.00;24.50;;;;;;10430460;28;20227;-72
2022/05/22 09:51:39;;;;;;;2.30;1.53;;;25.20;24.70;;;;;;10430926;28;20221;-73
2022/05/22 09:56:52;;;;;;;2.00;1.70;;;25.40;24.40;;;;;;10428442;28;20615;-73
2022/05/22 10:02:02;;;;;;;2.27;1.40;;;25.60;23.90;;;;;;10429325;28;20262;-74
2022/05/22 10:07:14;;;;;;;1.60;1.50;;;25.70;24.00;;;;;;10425463;28;20245;-72
2022/05/22 10:12:27;;;;;;;2.03;1.50;;;25.80;23.90;;;;;;10433862;28;20633;-73
2022/05/22 10:17:53;;;;;;;1.30;1.20;;;26.00;23.20;;;;;;10433093;28;20232;-73
2022/05/22 10:23:04;;;;;;;1.83;1.43;;;26.10;23.30;;;;;;10431230;28;20637;-73
2022/05/22 10:28:13;;;;;;;2.10;1.50;;;26.30;23.00;;;;;;10431812;28;20783;-73
2022/05/22 10:33:23;;;;;;;1.60;1.50;;;26.40;22.90;;;;;;10427544;28;20228;-73
2022/05/22 10:38:31;;;;;;;1.43;1.33;;;26.60;21.90;;;;;;10427938;28;20225;-73
2022/05/22 10:43:37;;;;;;;1.60;1.50;;;26.70;22.70;;;;;;10427059;28;20220;-74
2022/05/22 10:48:50;;;;;;;1.40;1.30;;;26.80;22.40;;;;;;10428308;28;20232;-74
2022/05/22 10:53:55;;;;;;;2.07;1.40;;;26.80;21.90;;;;;;10425093;28;20221;-74
2022/05/22 10:59:00;;;;;;;2.30;1.60;;;26.90;22.80;;;;;;10426732;28;20233;-73
2022/05/22 11:04:07;;;;;;;2.10;1.40;;;27.10;22.70;;;;;;10429294;28;20221;-73
2022/05/22 11:09:14;;;;;;;1.50;1.37;;;27.20;21.70;;;;;;10431801;28;20244;-70
2022/05/22 11:14:22;;;;;;;1.63;1.53;;;27.20;22.50;;;;;;10436070;28;20240;-69
2022/05/22 11:19:28;;;;;;;1.43;1.33;;;27.30;20.60;;;;;;10434791;28;20610;-70
2022/05/22 11:24:43;;;;;;;1.40;1.30;;;27.30;21.20;;;;;;10433469;28;20224;-70
2022/05/22 11:30:05;;;;;;;2.13;1.40;;;27.30;20.80;;;;;;10433197;28;20501;-70
2022/05/22 11:35:25;;;;;;;2.40;1.47;;;27.30;20.40;;;;;;10436707;28;20225;-74
2022/05/22 11:40:36;;;;;;;1.70;1.60;;;27.30;20.30;;;;;;10436548;28;20223;-73
2022/05/22 11:45:50;;;;;;;1.57;1.47;;;27.30;20.40;;;;;;10433904;28;20225;-73
2022/05/22 11:51:03;;;;;;;1.50;1.30;;;27.30;20.20;;;;;;10434125;28;20217;-73
2022/05/22 11:56:19;;;;;;;1.40;1.20;;;27.30;20.20;;;;;;10434478;28;20237;-74
2022/05/22 12:01:28;;;;;;;1.30;1.20;;;27.40;19.80;;;;;;10435290;28;20232;-73
2022/05/22 12:06:56;;;;;;;2.30;1.30;;;27.40;20.50;;;;;;10434556;28;20221;-73
2022/05/22 12:12:05;;;;;;;1.23;1.20;;;27.50;19.80;;;;;;10433788;28;20228;-73
2022/05/22 12:17:16;;;;;;;1.57;1.30;;;27.60;19.90;;;;;;10431918;28;20225;-73
2022/05/22 12:23:07;;;;;;;1.47;1.17;;;27.60;19.90;;;;;;10431919;28;20321;-74
2022/05/22 12:27:46;;;;;;;1.17;1.17;;;27.70;20.00;;;;;;10432808;28;20235;-74
2022/05/22 12:32:54;;;;;;;1.50;1.37;;;27.80;20.00;;;;;;10430790;28;20760;-73
2022/05/22 12:38:01;;;;;;;7.50;1.60;;;27.80;19.90;;;;;;10431167;28;20228;-73
2022/05/22 12:43:07;;;;;;;1.30;1.20;;;27.80;18.90;;;;;;10430548;28;20217;-73
2022/05/22 12:48:14;;;;;;;1.40;1.30;;;27.80;19.40;;;;;;10431610;28;20243;-74
2022/05/22 12:53:28;;;;;;;1.40;1.40;;;27.70;18.60;;;;;;10432229;28;20216;-73
2022/05/22 12:58:38;;;;;;;1.30;1.20;;;27.60;18.70;;;;;;10431502;28;20236;-73
2022/05/22 13:03:48;;;;;;;1.53;1.10;;;27.50;18.50;;;;;;10430195;28;20223;-73
2022/05/22 13:09:01;;;;;;;3.10;1.50;;;27.40;19.40;;;;;;10430834;28;20233;-77
2022/05/22 13:14:06;;;;;;;1.40;1.30;;;27.40;18.40;;;;;;10431276;28;20756;-74
2022/05/22 13:19:18;;;;;;;1.30;1.20;;;27.30;19.50;;;;;;10429127;28;20294;-74
2022/05/22 13:24:27;;;;;;;1.47;1.37;;;27.40;18.70;;;;;;10431425;28;20731;-73
2022/05/22 13:29:42;;;;;;;1.10;1.00;;;27.50;18.30;;;;;;10431937;28;20217;-73
2022/05/22 13:34:51;;;;;;;1.73;1.30;;;27.50;18.20;;;;;;10423035;28;20887;-72
2022/05/22 13:40:04;;;;;;;1.73;1.37;;;27.60;17.80;;;;;;10425157;28;20225;-73
2022/05/22 13:45:23;;;;;;;1.73;1.47;;;27.60;18.10;;;;;;10425540;28;20239;-72
2022/05/22 13:55:53;;;;;;;1.30;1.30;;;27.50;17.60;;;;;;10431041;28;20244;-72
2022/05/22 14:01:01;;;;;;;1.23;1.13;;;27.50;17.20;;;;;;10426379;28;20227;-72
2022/05/22 14:06:07;;;;;;;1.40;1.30;;;27.50;17.20;;;;;;10426281;28;20221;-72
2022/05/22 14:11:21;;;;;;;1.47;1.30;;;27.60;16.90;;;;;;10429378;28;20875;-72
2022/05/22 14:16:27;;;;;;;2.00;1.07;;;27.60;16.80;;;;;;10428036;28;20891;-73
2022/05/22 14:21:33;;;;;;;1.43;1.10;;;27.70;17.40;;;;;;10428603;28;20225;-72
2022/05/22 14:26:39;;;;;;;1.23;1.10;;;27.80;16.50;;;;;;10426556;28;20639;-73
2022/05/22 14:31:44;;;;;;;1.47;1.10;;;27.80;16.60;;;;;;10429284;28;20306;-73
2022/05/22 14:36:51;;;;;;;1.27;1.20;;;27.80;16.80;;;;;;10424962;28;20229;-72
2022/05/22 14:41:59;;;;;;;1.20;1.20;;;27.80;15.50;;;;;;10430136;28;20259;-72
2022/05/22 14:47:05;;;;;;;1.20;1.10;;;27.80;15.70;;;;;;10435111;28;20228;-72
2022/05/22 14:52:18;;;;;;;1.50;1.10;;;27.80;16.20;;;;;;10428009;28;20604;-72
2022/05/22 14:57:28;;;;;;;1.33;1.23;;;27.90;16.20;;;;;;10435657;28;20236;-72
2022/05/22 15:02:45;;;;;;;1.30;1.20;;;28.00;15.60;;;;;;10436470;28;20301;-73
2022/05/22 15:07:53;;;;;;;2.03;1.20;;;28.00;15.80;;;;;;10434860;28;20240;-73
2022/05/22 15:13:00;;;;;;;1.30;1.20;;;28.00;15.00;;;;;;10432801;28;20603;-72
2022/05/22 15:18:06;;;;;;;1.30;1.20;;;28.10;15.80;;;;;;10432839;28;20231;-72
2022/05/22 15:28:39;;;;;;;1.30;1.20;;;28.00;15.90;;;;;;10384547;28;20914;-73
2022/05/22 15:33:48;;;;;;;1.47;1.37;;;28.10;16.00;;;;;;10436610;28;20228;-72
2022/05/22 15:38:55;;;;;;;1.00;1.00;;;28.10;15.90;;;;;;10432323;28;20240;-72
2022/05/22 15:44:21;;;;;;;1.57;1.30;;;28.10;16.70;;;;;;10432572;28;20231;-72
2022/05/22 15:54:48;;;;;;;1.40;1.13;;;28.20;16.00;;;;;;10431348;28;20221;-72
2022/05/22 15:59:53;;;;;;;1.40;1.30;;;28.30;16.40;;;;;;10432937;28;20704;-71
2022/05/22 16:04:56;;;;;;;1.37;1.20;;;28.30;16.10;;;;;;10432630;28;20217;-72
2022/05/22 16:09:59;;;;;;;2.33;1.13;;;28.30;16.60;;;;;;10431180;28;21040;-72
2022/05/22 16:15:05;;;;;;;1.00;1.00;;;28.20;16.70;;;;;;10431509;28;20240;-72
2022/05/22 16:20:11;;;;;;;1.60;1.50;;;28.20;16.20;;;;;;10434646;28;20758;-72
2022/05/22 16:25:14;;;;;;;1.37;1.23;;;28.20;15.90;;;;;;10431302;28;20711;-72
2022/05/22 16:30:19;;;;;;;1.30;1.20;;;28.20;16.70;;;;;;10432852;28;20705;-72
2022/05/22 16:35:25;;;;;;;1.53;1.30;;;28.20;16.30;;;;;;10432508;28;20225;-72
2022/05/22 16:40:28;;;;;;;1.80;1.40;;;28.20;16.30;;;;;;10430845;28;20225;-72
2022/05/22 16:45:47;;;;;;;1.27;1.20;;;28.10;17.00;;;;;;10429924;28;20244;-72
2022/05/22 16:56:12;;;;;;;1.30;1.20;;;28.10;16.70;;;;;;10430817;28;20224;-72
2022/05/22 17:01:16;;;;;;;1.07;1.00;;;28.10;16.50;;;;;;10430391;28;20225;-70
2022/05/22 17:06:22;;;;;;;1.60;1.10;;;28.10;17.20;;;;;;10431261;28;20228;-69
2022/05/22 17:11:28;;;;;;;2.47;1.40;;;28.10;17.80;;;;;;10431031;28;20239;-69
2022/05/22 17:16:33;;;;;;;1.80;1.40;;;28.00;17.20;;;;;;10428364;28;20236;-69
2022/05/22 17:21:39;;;;;;;1.33;1.30;;;28.00;17.30;;;;;;10429643;28;20227;-69
2022/05/22 17:26:42;;;;;;;2.70;1.33;;;27.90;17.50;;;;;;10432386;28;20340;-69
2022/05/22 17:31:47;;;;;;;1.50;1.40;;;27.90;18.40;;;;;;10431294;28;20229;-69
2022/05/22 17:36:50;;;;;;;1.70;1.47;;;27.80;18.50;;;;;;10429078;28;20224;-69
2022/05/22 17:41:53;;;;;;;2.57;1.50;;;27.70;18.40;;;;;;10431675;28;20226;-69
2022/05/22 17:46:58;;;;;;;1.23;1.23;;;27.60;18.30;;;;;;10428002;28;20283;-69
2022/05/22 17:52:01;;;;;;;1.73;1.47;;;27.50;18.40;;;;;;10429749;28;20229;-69
2022/05/22 17:57:05;;;;;;;1.50;1.40;;;27.40;18.40;;;;;;10426314;28;20279;-68
2022/05/22 18:02:10;;;;;;;1.90;1.30;;;27.20;18.30;;;;;;10430829;28;20237;-69
2022/05/22 18:07:19;;;;;;;3.10;1.40;;;27.10;18.60;;;;;;10427957;28;20232;-69
2022/05/22 18:17:44;;;;;;;3.07;1.70;;;26.90;18.70;;;;;;10430256;28;20228;-68
2022/05/22 18:22:49;;;;;;;1.70;1.60;;;26.80;19.40;;;;;;10437879;28;20220;-69
2022/05/22 18:27:57;;;;;;;2.60;1.30;;;26.70;19.40;;;;;;10434577;28;20756;-69
2022/05/22 18:33:02;;;;;;;1.50;1.40;;;26.60;19.40;;;;;;10437642;28;20225;-69
2022/05/22 18:38:07;;;;;;;1.50;1.40;;;26.50;19.50;;;;;;10433618;28;20243;-69
2022/05/22 18:43:12;;;;;;;1.40;1.30;;;26.40;19.80;;;;;;10433256;28;21085;-69
2022/05/22 18:48:25;;;;;;;1.50;1.40;;;26.40;20.10;;;;;;10436226;28;20229;-69
2022/05/22 18:53:29;;;;;;;1.50;1.40;;;26.30;20.50;;;;;;10435044;28;20232;-69
2022/05/22 18:58:34;;;;;;;2.20;1.53;;;26.20;20.20;;;;;;10434224;28;20233;-69
2022/05/22 19:03:38;;;;;;;1.40;1.30;;;26.10;20.70;;;;;;10433689;28;20225;-70
2022/05/22 19:08:42;;;;;;;1.63;1.53;;;26.00;20.80;;;;;;10433717;28;21095;-69
2022/05/22 19:13:48;;;;;;;1.97;1.47;;;26.00;20.90;;;;;;10427756;28;21045;-69
2022/05/22 19:18:53;;;;;;;1.40;1.30;;;25.90;21.00;;;;;;10427479;28;20612;-69
2022/05/22 19:23:57;;;;;;;2.00;1.90;;;25.80;21.30;;;;;;10426132;28;20232;-69
2022/05/22 19:29:09;;;;;;;2.67;1.50;;;25.70;21.10;;;;;;10429660;28;20225;-69
2022/05/22 19:34:13;;;;;;;1.70;1.60;;;25.60;21.40;;;;;;10429578;28;20228;-69
2022/05/22 19:39:16;;;;;;;1.70;1.60;;;25.40;21.30;;;;;;10427530;28;20594;-69
2022/05/22 19:44:25;;;;;;;2.50;1.70;;;25.30;21.20;;;;;;10426566;28;20236;-69
2022/05/22 19:49:33;;;;;;;1.50;1.40;;;25.20;21.90;;;;;;10427864;28;20253;-69
2022/05/22 19:59:57;;;;;;;2.63;2.00;;;24.90;21.20;;;;;;10427483;28;20604;-69
2022/05/22 20:05:02;;;;;;;2.23;1.67;;;24.80;20.80;;;;;;10429326;28;20243;-69
2022/05/22 20:10:07;;;;;;;1.57;1.47;;;24.70;20.90;;;;;;10426954;28;20225;-69
2022/05/22 20:15:13;;;;;;;1.60;1.50;;;24.60;21.00;;;;;;10429218;28;20711;-69
2022/05/22 20:20:21;;;;;;;1.70;1.60;;;24.50;21.00;;;;;;10427347;28;20320;-69
2022/05/22 20:25:25;;;;;;;1.87;1.30;;;24.40;21.10;;;;;;10424993;28;20232;-69
2022/05/22 20:30:30;;;;;;;1.77;1.20;;;24.30;21.10;;;;;;10427488;28;20783;-69
2022/05/22 20:35:35;;;;;;;1.50;1.40;;;24.20;21.30;;;;;;10428260;28;20228;-69
2022/05/22 20:40:39;;;;;;;1.63;1.20;;;24.10;21.50;;;;;;10423171;28;20229;-69
2022/05/22 20:45:42;;;;;;;1.63;1.53;;;24.00;21.40;;;;;;10425854;28;20301;-69
2022/05/22 20:50:47;;;;;;;1.87;1.50;;;24.00;21.60;;;;;;10424475;28;20225;-68
2022/05/22 21:01:13;;;;;;;2.07;1.30;;;23.90;21.80;;;;;;10432620;28;20230;-69
2022/05/22 21:06:18;;;;;;;1.50;1.40;;;23.80;21.80;;;;;;10431946;28;20236;-69
2022/05/22 21:11:21;;;;;;;1.43;1.33;;;23.90;22.20;;;;;;10433770;28;20217;-69
2022/05/22 21:16:24;;;;;;;1.63;1.53;;;23.80;22.00;;;;;;10430218;28;20998;-69
2022/05/22 21:21:29;;;;;;;2.43;1.40;;;23.80;22.20;;;;;;10430800;28;20225;-69
2022/05/22 21:31:53;;;;;;;1.43;1.33;;;23.70;22.50;;;;;;10429939;28;20229;-72
2022/05/22 21:36:57;;;;;;;2.03;1.47;;;23.70;22.70;;;;;;10433078;28;20225;-72
2022/05/22 21:42:01;;;;;;;1.40;1.30;;;23.60;22.90;;;;;;10428547;28;20257;-72
2022/05/22 21:47:06;;;;;;;1.77;1.67;;;23.60;22.80;;;;;;10428992;28;20232;-72
2022/05/22 21:52:11;;;;;;;1.97;1.50;;;23.50;22.60;;;;;;10432155;28;20236;-72
2022/05/22 21:57:18;;;;;;;1.40;1.30;;;23.40;22.90;;;;;;10427635;28;20229;-72
2022/05/22 22:02:24;;;;;;;2.27;1.70;;;23.30;23.00;;;;;;10432390;28;20213;-72
2022/05/22 22:07:28;;;;;;;2.47;1.63;;;23.30;23.00;;;;;;10430138;28;20252;-72
2022/05/22 22:12:32;;;;;;;2.93;1.40;;;23.20;23.00;;;;;;10432139;28;20221;-72
2022/05/22 22:17:35;;;;;;;1.50;1.40;;;23.10;22.90;;;;;;10431053;28;20229;-72
2022/05/22 22:22:39;;;;;;;1.70;1.60;;;23.10;23.00;;;;;;10430581;28;20228;-72
2022/05/22 22:27:43;;;;;;;1.60;1.50;;;23.10;23.70;;;;;;10432583;28;20232;-72
2022/05/22 22:32:46;;;;;;;1.60;1.50;;;23.00;23.50;;;;;;10431383;28;20217;-72
2022/05/22 22:37:51;;;;;;;1.60;1.50;;;23.00;23.90;;;;;;10425616;28;20324;-72
2022/05/22 22:42:56;;;;;;;3.23;1.63;;;22.90;24.20;;;;;;10431403;28;20237;-72
2022/05/22 22:48:00;;;;;;;1.97;1.80;;;22.90;24.20;;;;;;10425693;28;20240;-72
2022/05/22 22:53:05;;;;;;;1.70;1.60;;;22.90;24.20;;;;;;10430431;28;20312;-72
2022/05/22 22:58:10;;;;;;;1.70;1.60;;;22.80;24.30;;;;;;10426435;28;20316;-72
2022/05/22 23:03:16;;;;;;;1.57;1.47;;;22.80;24.80;;;;;;10433347;28;20237;-72
2022/05/22 23:08:22;;;;;;;1.50;1.40;;;22.80;24.50;;;;;;10436749;28;20249;-72
2022/05/22 23:13:26;;;;;;;2.27;1.67;;;22.70;24.80;;;;;;10437431;28;20323;-72
2022/05/22 23:18:29;;;;;;;1.73;1.63;;;22.50;24.70;;;;;;10435365;28;20232;-72
2022/05/22 23:23:34;;;;;;;2.00;1.80;;;22.50;24.80;;;;;;10435201;28;20232;-72
2022/05/22 23:28:37;;;;;;;2.30;1.77;;;22.40;25.20;;;;;;10435194;28;20225;-72
2022/05/22 23:33:41;;;;;;;2.57;1.60;;;22.30;24.90;;;;;;10436401;28;20225;-72
2022/05/22 23:44:03;;;;;;;1.87;1.73;;;22.20;24.90;;;;;;10427012;28;20228;-71
2022/05/22 23:49:06;;;;;;;2.43;1.70;;;22.10;24.70;;;;;;10431511;28;20237;-72
2022/05/22 23:54:21;;;;;;;1.73;1.60;;;22.10;25.10;;;;;;10439028;28;20217;-72
2022/05/22 23:59:24;;;;;;;1.60;1.50;;;22.00;26.10;;;;;;10432711;28;20248;-72
